sensor_id;sensor_type;location;lat;lon;timestamp;P1;durP1;ratioP1;P2;durP2;ratioP2
71303;SDS011;59091;47.446;19.148;2023-03-17T00:01:09;26.48;;;10.68;;
71303;SDS011;59091;47.446;19.148;2023-03-17T00:03:36;27.10;;;9.93;;
71303;SDS011;59091;47.446;19.148;2023-03-17T00:06:04;31.48;;;10.80;;
71303;SDS011;59091;47.446;19.148;2023-03-17T00:08:31;22.55;;;10.00;;
71303;SDS011;59091;47.446;19.148;2023-03-17T00:10:59;30.25;;;10.20;;
71303;SDS011;59091;47.446;19.148;2023-03-17T00:13:26;27.23;;;10.70;;
71303;SDS011;59091;47.446;19.148;2023-03-17T00:15:53;23.13;;;10.38;;
71303;SDS011;59091;47.446;19.148;2023-03-17T00:18:22;26.58;;;9.63;;
71303;SDS011;59091;47.446;19.148;2023-03-17T00:23:53;26.00;;;10.18;;
71303;SDS011;59091;47.446;19.148;2023-03-17T00:26:19;24.33;;;9.82;;
71303;SDS011;59091;47.446;19.148;2023-03-17T00:28:45;25.23;;;9.70;;
71303;SDS011;59091;47.446;19.148;2023-03-17T00:31:11;27.42;;;9.20;;
71303;SDS011;59091;47.446;19.148;2023-03-17T00:33:48;36.20;;;10.70;;
71303;SDS011;59091;47.446;19.148;2023-03-17T00:36:26;25.90;;;9.65;;
71303;SDS011;59091;47.446;19.148;2023-03-17T00:38:54;23.08;;;10.07;;
71303;SDS011;59091;47.446;19.148;2023-03-17T00:41:20;36.22;;;10.18;;
71303;SDS011;59091;47.446;19.148;2023-03-17T00:43:46;28.38;;;10.60;;
71303;SDS011;59091;47.446;19.148;2023-03-17T00:46:12;20.77;;;9.20;;
71303;SDS011;59091;47.446;19.148;2023-03-17T00:51:12;22.23;;;9.40;;
71303;SDS011;59091;47.446;19.148;2023-03-17T00:53:40;30.83;;;9.82;;
71303;SDS011;59091;47.446;19.148;2023-03-17T00:56:13;31.02;;;10.07;;
71303;SDS011;59091;47.446;19.148;2023-03-17T00:58:43;28.50;;;10.40;;
71303;SDS011;59091;47.446;19.148;2023-03-17T01:01:10;24.67;;;10.80;;
71303;SDS011;59091;47.446;19.148;2023-03-17T01:03:36;30.65;;;10.38;;
71303;SDS011;59091;47.446;19.148;2023-03-17T01:06:03;20.23;;;9.18;;
71303;SDS011;59091;47.446;19.148;2023-03-17T01:08:30;24.25;;;10.23;;
71303;SDS011;59091;47.446;19.148;2023-03-17T01:10:56;27.27;;;10.38;;
71303;SDS011;59091;47.446;19.148;2023-03-17T01:13:22;25.38;;;10.32;;
71303;SDS011;59091;47.446;19.148;2023-03-17T01:15:48;27.85;;;10.27;;
71303;SDS011;59091;47.446;19.148;2023-03-17T01:18:15;25.40;;;9.88;;
71303;SDS011;59091;47.446;19.148;2023-03-17T01:20:42;23.83;;;10.10;;
71303;SDS011;59091;47.446;19.148;2023-03-17T01:23:08;25.85;;;10.43;;
71303;SDS011;59091;47.446;19.148;2023-03-17T01:25:35;24.00;;;10.20;;
71303;SDS011;59091;47.446;19.148;2023-03-17T01:28:02;25.70;;;9.57;;
71303;SDS011;59091;47.446;19.148;2023-03-17T01:30:29;24.50;;;9.98;;
71303;SDS011;59091;47.446;19.148;2023-03-17T01:33:01;21.83;;;10.20;;
71303;SDS011;59091;47.446;19.148;2023-03-17T01:35:27;22.17;;;9.82;;
71303;SDS011;59091;47.446;19.148;2023-03-17T01:37:56;22.83;;;9.80;;
71303;SDS011;59091;47.446;19.148;2023-03-17T01:40:27;20.75;;;9.32;;
71303;SDS011;59091;47.446;19.148;2023-03-17T01:48:38;20.83;;;8.80;;
71303;SDS011;59091;47.446;19.148;2023-03-17T01:51:07;21.13;;;9.63;;
71303;SDS011;59091;47.446;19.148;2023-03-17T01:53:35;22.40;;;10.05;;
71303;SDS011;59091;47.446;19.148;2023-03-17T01:56:01;18.92;;;9.57;;
71303;SDS011;59091;47.446;19.148;2023-03-17T01:58:27;27.63;;;9.38;;
71303;SDS011;59091;47.446;19.148;2023-03-17T02:00:54;20.10;;;9.15;;
71303;SDS011;59091;47.446;19.148;2023-03-17T02:03:19;19.50;;;9.32;;
71303;SDS011;59091;47.446;19.148;2023-03-17T02:05:47;19.98;;;8.48;;
71303;SDS011;59091;47.446;19.148;2023-03-17T02:08:15;16.75;;;8.52;;
71303;SDS011;59091;47.446;19.148;2023-03-17T02:10:41;25.98;;;9.20;;
71303;SDS011;59091;47.446;19.148;2023-03-17T02:13:09;31.00;;;9.30;;
71303;SDS011;59091;47.446;19.148;2023-03-17T02:15:38;22.50;;;8.60;;
71303;SDS011;59091;47.446;19.148;2023-03-17T02:18:09;24.33;;;9.38;;
71303;SDS011;59091;47.446;19.148;2023-03-17T02:23:02;19.55;;;8.93;;
71303;SDS011;59091;47.446;19.148;2023-03-17T02:25:30;18.65;;;9.05;;
71303;SDS011;59091;47.446;19.148;2023-03-17T02:28:01;19.05;;;8.57;;
71303;SDS011;59091;47.446;19.148;2023-03-17T02:30:33;26.17;;;8.75;;
71303;SDS011;59091;47.446;19.148;2023-03-17T02:33:00;17.02;;;9.20;;
71303;SDS011;59091;47.446;19.148;2023-03-17T02:35:27;17.73;;;8.73;;
71303;SDS011;59091;47.446;19.148;2023-03-17T02:37:53;14.40;;;7.82;;
71303;SDS011;59091;47.446;19.148;2023-03-17T02:40:20;17.15;;;8.05;;
71303;SDS011;59091;47.446;19.148;2023-03-17T02:42:47;17.80;;;8.68;;
71303;SDS011;59091;47.446;19.148;2023-03-17T02:45:12;24.33;;;8.48;;
71303;SDS011;59091;47.446;19.148;2023-03-17T02:47:39;21.13;;;8.15;;
71303;SDS011;59091;47.446;19.148;2023-03-17T02:50:05;19.88;;;9.50;;
71303;SDS011;59091;47.446;19.148;2023-03-17T02:52:32;18.15;;;7.90;;
71303;SDS011;59091;47.446;19.148;2023-03-17T02:54:58;23.50;;;8.00;;
71303;SDS011;59091;47.446;19.148;2023-03-17T02:57:23;19.65;;;7.88;;
71303;SDS011;59091;47.446;19.148;2023-03-17T02:59:49;19.70;;;7.90;;
71303;SDS011;59091;47.446;19.148;2023-03-17T03:02:14;25.55;;;8.15;;
71303;SDS011;59091;47.446;19.148;2023-03-17T03:04:41;22.02;;;7.97;;
71303;SDS011;59091;47.446;19.148;2023-03-17T03:07:07;23.17;;;8.68;;
71303;SDS011;59091;47.446;19.148;2023-03-17T03:09:34;25.35;;;8.65;;
71303;SDS011;59091;47.446;19.148;2023-03-17T03:11:59;20.33;;;8.48;;
71303;SDS011;59091;47.446;19.148;2023-03-17T03:14:25;27.00;;;8.23;;
71303;SDS011;59091;47.446;19.148;2023-03-17T03:16:51;17.63;;;8.13;;
71303;SDS011;59091;47.446;19.148;2023-03-17T03:19:16;15.02;;;7.45;;
71303;SDS011;59091;47.446;19.148;2023-03-17T03:21:42;29.67;;;8.57;;
71303;SDS011;59091;47.446;19.148;2023-03-17T03:24:08;22.83;;;8.77;;
71303;SDS011;59091;47.446;19.148;2023-03-17T03:26:35;22.98;;;7.82;;
71303;SDS011;59091;47.446;19.148;2023-03-17T03:29:01;21.70;;;7.53;;
71303;SDS011;59091;47.446;19.148;2023-03-17T03:31:27;26.55;;;8.57;;
71303;SDS011;59091;47.446;19.148;2023-03-17T03:33:53;22.65;;;9.32;;
71303;SDS011;59091;47.446;19.148;2023-03-17T03:36:19;18.10;;;8.48;;
71303;SDS011;59091;47.446;19.148;2023-03-17T03:38:45;17.02;;;8.60;;
71303;SDS011;59091;47.446;19.148;2023-03-17T03:41:11;22.30;;;8.95;;
71303;SDS011;59091;47.446;19.148;2023-03-17T03:43:37;28.13;;;9.63;;
71303;SDS011;59091;47.446;19.148;2023-03-17T03:46:03;35.97;;;9.43;;
71303;SDS011;59091;47.446;19.148;2023-03-17T03:48:28;23.70;;;8.07;;
71303;SDS011;59091;47.446;19.148;2023-03-17T03:50:55;20.30;;;8.32;;
71303;SDS011;59091;47.446;19.148;2023-03-17T03:53:22;17.20;;;8.32;;
71303;SDS011;59091;47.446;19.148;2023-03-17T03:55:48;23.85;;;8.57;;
71303;SDS011;59091;47.446;19.148;2023-03-17T03:58:13;20.58;;;8.02;;
71303;SDS011;59091;47.446;19.148;2023-03-17T04:00:38;20.40;;;8.50;;
71303;SDS011;59091;47.446;19.148;2023-03-17T04:03:04;19.77;;;8.15;;
71303;SDS011;59091;47.446;19.148;2023-03-17T04:05:30;21.45;;;8.95;;
71303;SDS011;59091;47.446;19.148;2023-03-17T04:07:55;26.13;;;9.52;;
71303;SDS011;59091;47.446;19.148;2023-03-17T04:10:21;24.30;;;8.55;;
71303;SDS011;59091;47.446;19.148;2023-03-17T04:12:47;31.95;;;9.35;;
71303;SDS011;59091;47.446;19.148;2023-03-17T04:15:14;21.25;;;9.00;;
71303;SDS011;59091;47.446;19.148;2023-03-17T04:17:41;26.98;;;9.38;;
71303;SDS011;59091;47.446;19.148;2023-03-17T04:20:07;21.25;;;8.95;;
71303;SDS011;59091;47.446;19.148;2023-03-17T04:22:33;31.52;;;9.40;;
71303;SDS011;59091;47.446;19.148;2023-03-17T04:24:59;26.48;;;10.07;;
71303;SDS011;59091;47.446;19.148;2023-03-17T04:27:24;23.63;;;9.65;;
71303;SDS011;59091;47.446;19.148;2023-03-17T04:29:49;38.25;;;9.90;;
71303;SDS011;59091;47.446;19.148;2023-03-17T04:32:15;28.63;;;10.35;;
71303;SDS011;59091;47.446;19.148;2023-03-17T04:34:41;29.65;;;10.23;;
71303;SDS011;59091;47.446;19.148;2023-03-17T04:37:07;26.92;;;9.95;;
71303;SDS011;59091;47.446;19.148;2023-03-17T04:39:34;27.25;;;10.15;;
71303;SDS011;59091;47.446;19.148;2023-03-17T04:41:59;37.65;;;10.25;;
71303;SDS011;59091;47.446;19.148;2023-03-17T04:44:25;30.27;;;11.02;;
71303;SDS011;59091;47.446;19.148;2023-03-17T04:46:51;31.50;;;11.00;;
71303;SDS011;59091;47.446;19.148;2023-03-17T04:49:16;25.75;;;10.20;;
71303;SDS011;59091;47.446;19.148;2023-03-17T04:51:42;25.52;;;11.18;;
71303;SDS011;59091;47.446;19.148;2023-03-17T04:54:07;40.28;;;10.73;;
71303;SDS011;59091;47.446;19.148;2023-03-17T04:56:33;32.28;;;11.65;;
71303;SDS011;59091;47.446;19.148;2023-03-17T04:58:58;39.55;;;11.65;;
71303;SDS011;59091;47.446;19.148;2023-03-17T05:01:24;34.08;;;11.98;;
71303;SDS011;59091;47.446;19.148;2023-03-17T05:03:50;25.48;;;10.52;;
71303;SDS011;59091;47.446;19.148;2023-03-17T05:06:15;40.67;;;11.55;;
71303;SDS011;59091;47.446;19.148;2023-03-17T05:08:41;37.35;;;11.40;;
71303;SDS011;59091;47.446;19.148;2023-03-17T05:11:09;35.05;;;12.02;;
71303;SDS011;59091;47.446;19.148;2023-03-17T05:13:35;29.10;;;11.48;;
71303;SDS011;59091;47.446;19.148;2023-03-17T05:16:01;36.58;;;11.88;;
71303;SDS011;59091;47.446;19.148;2023-03-17T05:18:27;47.47;;;11.63;;
71303;SDS011;59091;47.446;19.148;2023-03-17T05:20:53;27.17;;;11.52;;
71303;SDS011;59091;47.446;19.148;2023-03-17T05:23:18;34.15;;;11.93;;
71303;SDS011;59091;47.446;19.148;2023-03-17T05:25:44;47.60;;;11.73;;
71303;SDS011;59091;47.446;19.148;2023-03-17T05:28:10;37.38;;;11.20;;
71303;SDS011;59091;47.446;19.148;2023-03-17T05:30:36;35.53;;;11.90;;
71303;SDS011;59091;47.446;19.148;2023-03-17T05:33:01;31.85;;;12.60;;
71303;SDS011;59091;47.446;19.148;2023-03-17T05:35:27;38.10;;;12.40;;
71303;SDS011;59091;47.446;19.148;2023-03-17T05:37:53;39.13;;;12.52;;
71303;SDS011;59091;47.446;19.148;2023-03-17T05:40:18;28.27;;;12.23;;
71303;SDS011;59091;47.446;19.148;2023-03-17T05:42:44;30.42;;;12.05;;
71303;SDS011;59091;47.446;19.148;2023-03-17T05:45:09;30.23;;;11.80;;
71303;SDS011;59091;47.446;19.148;2023-03-17T05:47:36;29.90;;;12.27;;
71303;SDS011;59091;47.446;19.148;2023-03-17T05:50:02;31.67;;;12.48;;
71303;SDS011;59091;47.446;19.148;2023-03-17T05:52:28;37.63;;;13.80;;
71303;SDS011;59091;47.446;19.148;2023-03-17T05:54:54;22.70;;;12.45;;
71303;SDS011;59091;47.446;19.148;2023-03-17T05:57:19;29.35;;;13.15;;
71303;SDS011;59091;47.446;19.148;2023-03-17T05:59:45;35.65;;;15.77;;
71303;SDS011;59091;47.446;19.148;2023-03-17T06:02:11;40.17;;;16.65;;
71303;SDS011;59091;47.446;19.148;2023-03-17T06:04:37;36.70;;;15.65;;
71303;SDS011;59091;47.446;19.148;2023-03-17T06:07:03;40.80;;;15.85;;
71303;SDS011;59091;47.446;19.148;2023-03-17T06:09:30;38.80;;;16.17;;
71303;SDS011;59091;47.446;19.148;2023-03-17T06:11:56;37.65;;;17.08;;
71303;SDS011;59091;47.446;19.148;2023-03-17T06:14:21;38.20;;;15.77;;
71303;SDS011;59091;47.446;19.148;2023-03-17T06:16:47;39.78;;;16.10;;
71303;SDS011;59091;47.446;19.148;2023-03-17T06:19:13;36.15;;;16.58;;
71303;SDS011;59091;47.446;19.148;2023-03-17T06:21:38;55.85;;;22.45;;
71303;SDS011;59091;47.446;19.148;2023-03-17T06:24:05;45.80;;;19.70;;
71303;SDS011;59091;47.446;19.148;2023-03-17T06:26:30;46.50;;;19.55;;
71303;SDS011;59091;47.446;19.148;2023-03-17T06:28:57;40.60;;;17.10;;
71303;SDS011;59091;47.446;19.148;2023-03-17T06:31:22;38.35;;;16.23;;
71303;SDS011;59091;47.446;19.148;2023-03-17T06:33:48;40.03;;;17.05;;
71303;SDS011;59091;47.446;19.148;2023-03-17T06:36:13;27.52;;;12.77;;
71303;SDS011;59091;47.446;19.148;2023-03-17T06:38:39;32.47;;;15.05;;
71303;SDS011;59091;47.446;19.148;2023-03-17T06:41:04;31.95;;;15.60;;
71303;SDS011;59091;47.446;19.148;2023-03-17T06:43:30;34.05;;;15.85;;
71303;SDS011;59091;47.446;19.148;2023-03-17T06:45:56;44.25;;;15.77;;
71303;SDS011;59091;47.446;19.148;2023-03-17T06:48:22;40.90;;;15.80;;
71303;SDS011;59091;47.446;19.148;2023-03-17T06:50:47;32.40;;;13.15;;
71303;SDS011;59091;47.446;19.148;2023-03-17T06:53:14;31.67;;;11.77;;
71303;SDS011;59091;47.446;19.148;2023-03-17T06:55:40;28.80;;;12.75;;
71303;SDS011;59091;47.446;19.148;2023-03-17T06:58:06;36.70;;;13.52;;
71303;SDS011;59091;47.446;19.148;2023-03-17T07:00:33;22.30;;;10.75;;
71303;SDS011;59091;47.446;19.148;2023-03-17T07:02:59;26.08;;;11.80;;
71303;SDS011;59091;47.446;19.148;2023-03-17T07:05:24;24.15;;;12.07;;
71303;SDS011;59091;47.446;19.148;2023-03-17T07:07:50;26.58;;;10.35;;
71303;SDS011;59091;47.446;19.148;2023-03-17T07:10:16;23.40;;;10.75;;
71303;SDS011;59091;47.446;19.148;2023-03-17T07:12:42;20.80;;;10.18;;
71303;SDS011;59091;47.446;19.148;2023-03-17T07:15:14;21.08;;;9.95;;
71303;SDS011;59091;47.446;19.148;2023-03-17T07:17:41;19.30;;;9.63;;
71303;SDS011;59091;47.446;19.148;2023-03-17T07:20:06;23.25;;;9.80;;
71303;SDS011;59091;47.446;19.148;2023-03-17T07:22:33;17.10;;;9.07;;
71303;SDS011;59091;47.446;19.148;2023-03-17T07:24:59;16.13;;;8.75;;
71303;SDS011;59091;47.446;19.148;2023-03-17T07:27:24;15.82;;;7.47;;
71303;SDS011;59091;47.446;19.148;2023-03-17T07:29:50;17.52;;;7.80;;
71303;SDS011;59091;47.446;19.148;2023-03-17T07:32:16;15.77;;;7.90;;
71303;SDS011;59091;47.446;19.148;2023-03-17T07:34:42;22.38;;;7.38;;
71303;SDS011;59091;47.446;19.148;2023-03-17T07:37:07;19.35;;;6.72;;
71303;SDS011;59091;47.446;19.148;2023-03-17T07:39:34;15.55;;;7.38;;
71303;SDS011;59091;47.446;19.148;2023-03-17T07:42:00;12.13;;;6.68;;
71303;SDS011;59091;47.446;19.148;2023-03-17T07:44:26;15.05;;;5.78;;
71303;SDS011;59091;47.446;19.148;2023-03-17T07:46:51;14.48;;;5.90;;
71303;SDS011;59091;47.446;19.148;2023-03-17T07:49:17;11.15;;;5.20;;
71303;SDS011;59091;47.446;19.148;2023-03-17T07:51:43;11.30;;;4.28;;
71303;SDS011;59091;47.446;19.148;2023-03-17T07:54:09;10.25;;;5.07;;
71303;SDS011;59091;47.446;19.148;2023-03-17T07:56:36;11.52;;;4.80;;
71303;SDS011;59091;47.446;19.148;2023-03-17T07:59:02;11.82;;;4.88;;
71303;SDS011;59091;47.446;19.148;2023-03-17T08:01:28;15.30;;;5.03;;
71303;SDS011;59091;47.446;19.148;2023-03-17T08:03:54;11.75;;;4.82;;
71303;SDS011;59091;47.446;19.148;2023-03-17T08:06:20;11.45;;;4.55;;
71303;SDS011;59091;47.446;19.148;2023-03-17T08:08:48;8.40;;;3.42;;
71303;SDS011;59091;47.446;19.148;2023-03-17T08:11:14;5.43;;;3.20;;
71303;SDS011;59091;47.446;19.148;2023-03-17T08:13:39;7.28;;;2.92;;
71303;SDS011;59091;47.446;19.148;2023-03-17T08:16:05;5.88;;;3.35;;
71303;SDS011;59091;47.446;19.148;2023-03-17T08:18:31;7.60;;;3.72;;
71303;SDS011;59091;47.446;19.148;2023-03-17T08:20:56;10.40;;;3.47;;
71303;SDS011;59091;47.446;19.148;2023-03-17T08:23:22;12.85;;;3.80;;
71303;SDS011;59091;47.446;19.148;2023-03-17T08:25:49;6.38;;;3.72;;
71303;SDS011;59091;47.446;19.148;2023-03-17T08:28:14;6.32;;;3.88;;
71303;SDS011;59091;47.446;19.148;2023-03-17T08:30:40;5.75;;;3.65;;
71303;SDS011;59091;47.446;19.148;2023-03-17T08:33:07;7.05;;;3.28;;
71303;SDS011;59091;47.446;19.148;2023-03-17T08:35:33;10.30;;;4.03;;
71303;SDS011;59091;47.446;19.148;2023-03-17T08:38:00;8.25;;;4.10;;
71303;SDS011;59091;47.446;19.148;2023-03-17T08:40:26;5.88;;;3.08;;
71303;SDS011;59091;47.446;19.148;2023-03-17T08:42:51;7.22;;;2.95;;
71303;SDS011;59091;47.446;19.148;2023-03-17T08:45:17;8.80;;;3.10;;
71303;SDS011;59091;47.446;19.148;2023-03-17T08:47:43;7.63;;;3.33;;
71303;SDS011;59091;47.446;19.148;2023-03-17T08:50:10;11.82;;;3.35;;
71303;SDS011;59091;47.446;19.148;2023-03-17T08:52:39;6.95;;;2.75;;
71303;SDS011;59091;47.446;19.148;2023-03-17T08:55:05;5.70;;;2.80;;
71303;SDS011;59091;47.446;19.148;2023-03-17T08:57:33;9.57;;;3.22;;
71303;SDS011;59091;47.446;19.148;2023-03-17T08:59:59;6.88;;;2.60;;
71303;SDS011;59091;47.446;19.148;2023-03-17T09:02:24;7.45;;;2.70;;
71303;SDS011;59091;47.446;19.148;2023-03-17T09:04:50;9.38;;;2.47;;
71303;SDS011;59091;47.446;19.148;2023-03-17T09:07:16;4.90;;;2.90;;
71303;SDS011;59091;47.446;19.148;2023-03-17T09:09:41;11.45;;;3.03;;
71303;SDS011;59091;47.446;19.148;2023-03-17T09:12:07;8.82;;;3.78;;
71303;SDS011;59091;47.446;19.148;2023-03-17T09:14:33;8.82;;;3.20;;
71303;SDS011;59091;47.446;19.148;2023-03-17T09:16:59;6.30;;;2.95;;
71303;SDS011;59091;47.446;19.148;2023-03-17T09:19:24;7.60;;;3.20;;
71303;SDS011;59091;47.446;19.148;2023-03-17T09:21:50;3.72;;;2.53;;
71303;SDS011;59091;47.446;19.148;2023-03-17T09:24:17;6.85;;;2.83;;
71303;SDS011;59091;47.446;19.148;2023-03-17T09:26:43;7.35;;;2.88;;
71303;SDS011;59091;47.446;19.148;2023-03-17T09:29:08;12.07;;;3.13;;
71303;SDS011;59091;47.446;19.148;2023-03-17T09:31:34;5.57;;;2.78;;
71303;SDS011;59091;47.446;19.148;2023-03-17T09:34:03;3.53;;;2.42;;
71303;SDS011;59091;47.446;19.148;2023-03-17T09:36:29;4.38;;;2.63;;
71303;SDS011;59091;47.446;19.148;2023-03-17T09:38:58;3.25;;;2.50;;
71303;SDS011;59091;47.446;19.148;2023-03-17T09:49:50;5.03;;;2.70;;
71303;SDS011;59091;47.446;19.148;2023-03-17T09:52:26;8.68;;;3.13;;
71303;SDS011;59091;47.446;19.148;2023-03-17T09:54:53;4.47;;;2.63;;
71303;SDS011;59091;47.446;19.148;2023-03-17T09:57:23;6.07;;;2.95;;
71303;SDS011;59091;47.446;19.148;2023-03-17T09:59:58;3.60;;;2.33;;
71303;SDS011;59091;47.446;19.148;2023-03-17T10:02:29;4.72;;;2.80;;
71303;SDS011;59091;47.446;19.148;2023-03-17T10:04:56;3.53;;;2.35;;
71303;SDS011;59091;47.446;19.148;2023-03-17T10:07:30;4.07;;;2.83;;
71303;SDS011;59091;47.446;19.148;2023-03-17T10:10:08;5.13;;;2.85;;
71303;SDS011;59091;47.446;19.148;2023-03-17T10:15:15;5.78;;;2.70;;
71303;SDS011;59091;47.446;19.148;2023-03-17T10:17:47;7.00;;;2.97;;
71303;SDS011;59091;47.446;19.148;2023-03-17T10:20:17;7.97;;;2.65;;
71303;SDS011;59091;47.446;19.148;2023-03-17T10:22:50;3.03;;;2.40;;
71303;SDS011;59091;47.446;19.148;2023-03-17T10:25:22;7.40;;;2.55;;
71303;SDS011;59091;47.446;19.148;2023-03-17T10:27:56;4.80;;;2.47;;
71303;SDS011;59091;47.446;19.148;2023-03-17T10:30:26;10.18;;;3.45;;
71303;SDS011;59091;47.446;19.148;2023-03-17T10:32:53;11.82;;;4.63;;
71303;SDS011;59091;47.446;19.148;2023-03-17T10:35:23;9.30;;;2.70;;
71303;SDS011;59091;47.446;19.148;2023-03-17T10:37:50;6.05;;;3.05;;
71303;SDS011;59091;47.446;19.148;2023-03-17T10:40:19;5.22;;;2.80;;
71303;SDS011;59091;47.446;19.148;2023-03-17T10:42:51;6.80;;;2.97;;
71303;SDS011;59091;47.446;19.148;2023-03-17T10:47:54;6.70;;;2.90;;
71303;SDS011;59091;47.446;19.148;2023-03-17T10:50:22;7.40;;;3.40;;
71303;SDS011;59091;47.446;19.148;2023-03-17T10:53:00;7.43;;;3.08;;
71303;SDS011;59091;47.446;19.148;2023-03-17T10:55:32;6.57;;;3.10;;
71303;SDS011;59091;47.446;19.148;2023-03-17T10:58:12;6.05;;;2.90;;
71303;SDS011;59091;47.446;19.148;2023-03-17T11:00:38;5.15;;;3.08;;
71303;SDS011;59091;47.446;19.148;2023-03-17T11:03:27;6.68;;;2.85;;
71303;SDS011;59091;47.446;19.148;2023-03-17T11:05:56;4.40;;;3.22;;
71303;SDS011;59091;47.446;19.148;2023-03-17T11:08:38;4.75;;;3.13;;
71303;SDS011;59091;47.446;19.148;2023-03-17T11:11:18;4.93;;;3.38;;
71303;SDS011;59091;47.446;19.148;2023-03-17T11:13:48;4.60;;;3.15;;
71303;SDS011;59091;47.446;19.148;2023-03-17T11:16:18;5.72;;;3.38;;
71303;SDS011;59091;47.446;19.148;2023-03-17T11:18:46;8.37;;;3.80;;
71303;SDS011;59091;47.446;19.148;2023-03-17T11:21:20;7.07;;;3.35;;
71303;SDS011;59091;47.446;19.148;2023-03-17T11:23:50;6.65;;;3.78;;
71303;SDS011;59091;47.446;19.148;2023-03-17T11:31:58;6.90;;;3.35;;
71303;SDS011;59091;47.446;19.148;2023-03-17T11:34:50;7.07;;;3.17;;
71303;SDS011;59091;47.446;19.148;2023-03-17T11:40:40;16.13;;;6.25;;
71303;SDS011;59091;47.446;19.148;2023-03-17T11:43:48;37.53;;;12.98;;
71303;SDS011;59091;47.446;19.148;2023-03-17T11:49:23;15.73;;;7.47;;
71303;SDS011;59091;47.446;19.148;2023-03-17T11:52:08;16.23;;;7.53;;
71303;SDS011;59091;47.446;19.148;2023-03-17T11:57:30;13.38;;;5.70;;
71303;SDS011;59091;47.446;19.148;2023-03-17T12:00:17;10.45;;;4.85;;
71303;SDS011;59091;47.446;19.148;2023-03-17T12:02:53;16.42;;;6.40;;
71303;SDS011;59091;47.446;19.148;2023-03-17T12:05:23;7.70;;;4.00;;
71303;SDS011;59091;47.446;19.148;2023-03-17T12:10:30;11.70;;;5.97;;
71303;SDS011;59091;47.446;19.148;2023-03-17T12:13:14;39.40;;;18.17;;
71303;SDS011;59091;47.446;19.148;2023-03-17T12:18:17;6.47;;;3.55;;
71303;SDS011;59091;47.446;19.148;2023-03-17T12:20:54;6.47;;;3.47;;
71303;SDS011;59091;47.446;19.148;2023-03-17T12:26:22;5.85;;;3.00;;
71303;SDS011;59091;47.446;19.148;2023-03-17T12:31:36;15.55;;;7.68;;
71303;SDS011;59091;47.446;19.148;2023-03-17T12:34:20;25.73;;;8.13;;
71303;SDS011;59091;47.446;19.148;2023-03-17T12:36:52;20.92;;;7.13;;
71303;SDS011;59091;47.446;19.148;2023-03-17T12:39:27;7.05;;;3.83;;
71303;SDS011;59091;47.446;19.148;2023-03-17T12:44:48;5.90;;;3.08;;
71303;SDS011;59091;47.446;19.148;2023-03-17T12:55:45;7.10;;;3.67;;
71303;SDS011;59091;47.446;19.148;2023-03-17T13:01:23;4.93;;;3.38;;
71303;SDS011;59091;47.446;19.148;2023-03-17T13:06:40;17.95;;;7.38;;
71303;SDS011;59091;47.446;19.148;2023-03-17T13:09:25;16.40;;;7.53;;
71303;SDS011;59091;47.446;19.148;2023-03-17T13:11:58;7.93;;;3.58;;
71303;SDS011;59091;47.446;19.148;2023-03-17T13:17:03;10.40;;;4.20;;
71303;SDS011;59091;47.446;19.148;2023-03-17T13:25:10;4.65;;;3.60;;
71303;SDS011;59091;47.446;19.148;2023-03-17T13:27:40;6.82;;;3.83;;
71303;SDS011;59091;47.446;19.148;2023-03-17T13:33:00;7.45;;;3.10;;
71303;SDS011;59091;47.446;19.148;2023-03-17T13:38:19;8.60;;;4.05;;
71303;SDS011;59091;47.446;19.148;2023-03-17T13:44:19;14.63;;;4.40;;
71303;SDS011;59091;47.446;19.148;2023-03-17T13:46:49;5.28;;;3.33;;
71303;SDS011;59091;47.446;19.148;2023-03-17T13:51:54;5.05;;;3.10;;
71303;SDS011;59091;47.446;19.148;2023-03-17T13:56:52;10.20;;;3.70;;
71303;SDS011;59091;47.446;19.148;2023-03-17T14:01:59;6.65;;;3.70;;
71303;SDS011;59091;47.446;19.148;2023-03-17T14:04:29;12.00;;;4.75;;
71303;SDS011;59091;47.446;19.148;2023-03-17T14:07:12;11.63;;;4.07;;
71303;SDS011;59091;47.446;19.148;2023-03-17T14:09:41;11.25;;;4.57;;
71303;SDS011;59091;47.446;19.148;2023-03-17T14:12:18;6.97;;;3.83;;
71303;SDS011;59091;47.446;19.148;2023-03-17T14:14:56;4.85;;;3.13;;
71303;SDS011;59091;47.446;19.148;2023-03-17T14:17:31;4.85;;;3.20;;
71303;SDS011;59091;47.446;19.148;2023-03-17T14:20:04;6.63;;;3.15;;
71303;SDS011;59091;47.446;19.148;2023-03-17T14:22:37;8.63;;;3.80;;
71303;SDS011;59091;47.446;19.148;2023-03-17T14:25:05;8.23;;;3.72;;
71303;SDS011;59091;47.446;19.148;2023-03-17T14:27:38;7.20;;;3.65;;
71303;SDS011;59091;47.446;19.148;2023-03-17T14:30:07;6.35;;;3.65;;
71303;SDS011;59091;47.446;19.148;2023-03-17T14:32:44;8.27;;;3.33;;
71303;SDS011;59091;47.446;19.148;2023-03-17T14:35:12;9.38;;;3.33;;
71303;SDS011;59091;47.446;19.148;2023-03-17T14:37:37;9.50;;;3.40;;
71303;SDS011;59091;47.446;19.148;2023-03-17T14:40:16;7.88;;;3.17;;
71303;SDS011;59091;47.446;19.148;2023-03-17T14:42:43;4.90;;;3.50;;
71303;SDS011;59091;47.446;19.148;2023-03-17T14:45:20;5.75;;;3.15;;
71303;SDS011;59091;47.446;19.148;2023-03-17T14:48:08;6.90;;;3.60;;
71303;SDS011;59091;47.446;19.148;2023-03-17T14:50:37;7.53;;;3.67;;
71303;SDS011;59091;47.446;19.148;2023-03-17T14:53:14;10.82;;;3.67;;
71303;SDS011;59091;47.446;19.148;2023-03-17T14:55:40;5.28;;;3.45;;
71303;SDS011;59091;47.446;19.148;2023-03-17T14:58:08;5.22;;;3.30;;
71303;SDS011;59091;47.446;19.148;2023-03-17T15:00:43;6.38;;;2.72;;
71303;SDS011;59091;47.446;19.148;2023-03-17T15:03:16;6.82;;;3.55;;
71303;SDS011;59091;47.446;19.148;2023-03-17T15:05:44;5.80;;;3.15;;
71303;SDS011;59091;47.446;19.148;2023-03-17T15:11:00;15.68;;;4.72;;
71303;SDS011;59091;47.446;19.148;2023-03-17T15:13:28;6.35;;;3.70;;
71303;SDS011;59091;47.446;19.148;2023-03-17T15:15:57;6.75;;;3.85;;
71303;SDS011;59091;47.446;19.148;2023-03-17T15:18:27;6.53;;;4.03;;
71303;SDS011;59091;47.446;19.148;2023-03-17T15:20:53;6.70;;;3.90;;
71303;SDS011;59091;47.446;19.148;2023-03-17T15:23:20;6.50;;;3.88;;
71303;SDS011;59091;47.446;19.148;2023-03-17T15:25:55;8.13;;;3.80;;
71303;SDS011;59091;47.446;19.148;2023-03-17T15:28:22;10.50;;;4.00;;
71303;SDS011;59091;47.446;19.148;2023-03-17T15:30:50;8.45;;;4.00;;
71303;SDS011;59091;47.446;19.148;2023-03-17T15:33:21;6.43;;;3.42;;
71303;SDS011;59091;47.446;19.148;2023-03-17T15:35:56;11.35;;;3.70;;
71303;SDS011;59091;47.446;19.148;2023-03-17T15:38:23;7.10;;;3.60;;
71303;SDS011;59091;47.446;19.148;2023-03-17T15:40:49;5.97;;;3.40;;
71303;SDS011;59091;47.446;19.148;2023-03-17T15:43:15;6.85;;;3.95;;
71303;SDS011;59091;47.446;19.148;2023-03-17T15:45:42;5.78;;;3.28;;
71303;SDS011;59091;47.446;19.148;2023-03-17T15:48:16;14.25;;;3.83;;
71303;SDS011;59091;47.446;19.148;2023-03-17T15:50:46;5.53;;;3.17;;
71303;SDS011;59091;47.446;19.148;2023-03-17T15:53:13;10.05;;;3.63;;
71303;SDS011;59091;47.446;19.148;2023-03-17T15:55:38;7.45;;;3.83;;
71303;SDS011;59091;47.446;19.148;2023-03-17T15:58:03;6.28;;;3.42;;
71303;SDS011;59091;47.446;19.148;2023-03-17T16:00:29;8.95;;;4.78;;
71303;SDS011;59091;47.446;19.148;2023-03-17T16:02:56;6.38;;;3.80;;
71303;SDS011;59091;47.446;19.148;2023-03-17T16:05:26;8.35;;;4.22;;
71303;SDS011;59091;47.446;19.148;2023-03-17T16:07:53;8.73;;;4.28;;